Mancos, CO (81328)

9:39 PM MDT on April 17, 2015 (GMT -0600)
RAWS | | Change Station
CLOSE
Current Station
Personal Weather Station
Location: Mesa Verde, CO
Elevation: 7819 ft
Nearby Weather Stations
Active Advisory: Freeze Warning

Elev 7819 ft 37.30 °N, 108.41 °W | Updated 59 minutes ago

Overcast
Overcast
29 °F
Feels Like 29 °F
N
3
Wind Variable Wind from NW
Gusts 8.0 mph

Today
High -- | Low -- °F
--% Chance of Precip.
Yesterday
High -- | Low -- °F
Precip. -- in
6:36 AM 7:50 PM
Waning Crescent, 1% visible
Pressure 30.02 in
Visibility 9.0 miles
Clouds Mostly Cloudy 2100 ft
Overcast 3100 ft
Windchill 29 °F
Dew Point 27 °F
Humidity 91%
Rainfall in
Snow Depth Not available.
UV 0 out of 12
Pollen 7.90 out of 12
Air Quality Not available.
Flu Activity Local Activity
METAR KCEZ 180253Z AUTO 06006KT 9SM -RA BKN021 OVC031 03/00 A3005 RMK AO2 RAB03E12B37 SLP165 P0000 60000 T00280000 53004

More Conditions Fewer Conditions

Pressure 30.02 in
Visibility 9.0 miles
Clouds Mostly Cloudy 2100 ft
Overcast 3100 ft
Windchill 29 °F
Dew Point 27 °F
Humidity 91%
Rainfall in
Snow Depth Not available.
UV 0 out of 12
Pollen 7.90 out of 12
Air Quality Not available.
Flu Activity Local Activity
METAR KCEZ 180253Z AUTO 06006KT 9SM -RA BKN021 OVC031 03/00 A3005 RMK AO2 RAB03E12B37 SLP165 P0000 60000 T00280000 53004

More Conditions Fewer Conditions

10-Day Weather Forecast

Almanac

Astronomy

Apr. 17, 2015 Rise Set
Actual Time
Civil Twilight
Nautical Twilight
Astronomical Twilight
Moon
Length of Visible Light
Length of Day
Tomorrow will be .
, % of the Moon is Illuminated

Today's Extremes

State Highs State Lows

Community

WunderPhotos

Upload Photos

1,814,316 photos uploaded!

WunderBlogs® & News

Nearby

Air Quality

  Air Quality AQ Index Pollutant
Not available.

Snow Depth

Station Depth Elevation

Earthquake Activity

City Distance Mag. Time & Date
Minimum magnitude displayed is 2.5.

Coastal Water Temperatures

Place Temperature

Stations

Nearby Weather Stations

Station Location Temp. Windchill Dew Point Humidity Wind Precip. Elev Updated Type
                   
Freeze Warning
Statement as of 3:07 PM MDT on April 17, 2015

... Freeze warning in effect from 1 am to 9 am MDT Saturday...

The National Weather Service in Grand Junction has issued a
freeze warning... which is in effect from 1 am to 9 am MDT
Saturday. The freeze watch is no longer in effect.

* Timing..from 1 am to 9 am Saturday morning. The coldest
temperatures are expected near sunrise.

* Temperatures... dropping to 25 to 30 degrees.

* Impacts... freezing temperatures could damage budding or
blooming fruit trees and other sensitive vegetation.

Precautionary/preparedness actions...

A freeze warning means sub-freezing temperatures are imminent or
highly likely. These conditions will kill crops and other
sensitive vegetation.